createdAt,value
2023-01-04T00:00:17.756Z,-1.20
2023-01-04T00:03:05.530Z,-1.10
2023-01-04T00:05:53.053Z,-1.00
2023-01-04T00:08:40.567Z,-1.00
2023-01-04T00:11:27.982Z,-0.90
2023-01-04T00:14:17.390Z,-0.80
2023-01-04T00:17:06.437Z,-0.70
2023-01-04T00:19:54.920Z,-0.60
2023-01-04T00:22:42.401Z,-0.60
2023-01-04T00:25:29.471Z,-0.50
2023-01-04T00:28:17.884Z,-0.50
2023-01-04T00:31:06.917Z,-0.50
2023-01-04T00:33:57.441Z,-0.40
2023-01-04T00:36:44.739Z,-0.50
2023-01-04T00:39:31.893Z,-0.40
2023-01-04T00:42:19.008Z,-0.40
2023-01-04T00:45:07.119Z,-0.40
2023-01-04T00:47:54.458Z,-0.30
2023-01-04T00:50:44.836Z,-0.30
2023-01-04T00:53:32.362Z,-0.20
2023-01-04T00:56:19.672Z,-0.20
2023-01-04T00:59:07.267Z,-0.10
2023-01-04T01:01:55.382Z,-0.10
2023-01-04T01:04:43.106Z,-0.10
2023-01-04T01:07:31.885Z,-0.20
2023-01-04T01:10:19.172Z,-0.30
2023-01-04T01:13:06.356Z,-0.40
2023-01-04T01:15:53.516Z,-0.50
2023-01-04T01:18:43.007Z,-0.50
2023-01-04T01:21:32.193Z,-0.50
2023-01-04T01:24:21.453Z,-0.60
2023-01-04T01:27:09.005Z,-0.60
2023-01-04T01:29:56.279Z,-0.70
2023-01-04T01:32:43.366Z,-0.80
2023-01-04T01:35:30.759Z,-0.90
2023-01-04T01:38:18.001Z,-1.00
2023-01-04T01:41:08.202Z,-1.00
2023-01-04T01:43:58.713Z,-1.10
2023-01-04T01:46:48.295Z,-1.10
2023-01-04T01:49:39.539Z,-1.20
2023-01-04T01:52:30.944Z,-1.30
2023-01-04T01:55:19.177Z,-1.30
2023-01-04T01:58:09.677Z,-1.40
2023-01-04T02:00:57.202Z,-1.40
2023-01-04T02:03:45.089Z,-1.50
2023-01-04T02:06:34.650Z,-1.50
2023-01-04T02:09:22.625Z,-1.60
2023-01-04T02:12:12.231Z,-1.60
2023-01-04T02:15:00.821Z,-1.70
2023-01-04T02:17:56.029Z,-1.70
2023-01-04T02:20:48.796Z,-1.80
2023-01-04T02:24:03.027Z,-1.80
2023-01-04T02:27:29.160Z,-1.90
2023-01-04T02:31:07.674Z,-1.90
2023-01-04T02:34:05.701Z,-1.90
2023-01-04T02:36:59.450Z,-2.00
2023-01-04T02:39:54.063Z,-2.00
2023-01-04T02:43:08.407Z,-2.10
2023-01-04T02:46:04.116Z,-2.10
2023-01-04T02:49:08.900Z,-2.10
2023-01-04T02:51:57.407Z,-2.10
2023-01-04T02:54:45.757Z,-2.10
2023-01-04T02:57:44.635Z,-2.10
2023-01-04T03:01:11.899Z,-2.00
2023-01-04T03:04:20.842Z,-2.00
2023-01-04T03:07:17.081Z,-2.00
2023-01-04T03:10:10.430Z,-2.00
2023-01-04T03:13:05.797Z,-2.00
2023-01-04T03:15:56.947Z,-2.00
2023-01-04T03:18:47.907Z,-2.00
2023-01-04T03:21:35.527Z,-2.00
2023-01-04T03:24:41.773Z,-2.10
2023-01-04T03:27:47.072Z,-2.20
2023-01-04T03:30:56.148Z,-2.20
2023-01-04T03:34:02.286Z,-2.30
2023-01-04T03:36:59.919Z,-2.30
2023-01-04T03:40:37.956Z,-2.40
2023-01-04T03:43:50.519Z,-2.40
2023-01-04T03:47:02.232Z,-2.50
2023-01-04T03:49:57.484Z,-2.50
2023-01-04T03:52:48.873Z,-2.50
2023-01-04T03:55:39.393Z,-2.60
2023-01-04T03:58:26.896Z,-2.60
2023-01-04T04:01:14.828Z,-2.60
2023-01-04T04:04:19.516Z,-2.70
2023-01-04T04:07:24.296Z,-2.70
2023-01-04T04:10:11.625Z,-2.50
2023-01-04T04:13:00.144Z,-2.40
2023-01-04T04:15:47.845Z,-2.30
2023-01-04T04:18:34.932Z,-2.40
2023-01-04T04:21:22.218Z,-2.40
2023-01-04T04:24:17.164Z,-2.40
2023-01-04T04:27:04.583Z,-2.50
2023-01-04T04:29:53.231Z,-2.50
2023-01-04T04:32:40.545Z,-2.60
2023-01-04T04:35:28.075Z,-2.60
2023-01-04T04:38:15.225Z,-2.60
2023-01-04T04:41:25.745Z,-2.70
2023-01-04T04:44:16.061Z,-2.80
2023-01-04T04:47:04.946Z,-2.80
2023-01-04T04:49:52.417Z,-2.80
2023-01-04T04:52:41.256Z,-2.90
2023-01-04T04:55:28.838Z,-2.90
2023-01-04T04:58:15.981Z,-2.90
2023-01-04T05:01:03.148Z,-2.90
2023-01-04T05:03:51.704Z,-3.00
2023-01-04T05:06:39.102Z,-3.00
2023-01-04T05:09:26.568Z,-3.00
2023-01-04T05:12:31.654Z,-3.00
2023-01-04T05:15:19.183Z,-3.00
2023-01-04T05:18:07.546Z,-3.00
2023-01-04T05:20:56.112Z,-3.10
2023-01-04T05:23:43.429Z,-3.10
2023-01-04T05:26:30.766Z,-3.10
2023-01-04T05:29:31.752Z,-3.10
2023-01-04T05:32:18.876Z,-3.10
2023-01-04T05:35:06.741Z,-3.10
2023-01-04T05:37:55.440Z,-3.10
2023-01-04T05:40:42.843Z,-3.10
2023-01-04T05:43:29.935Z,-3.00
2023-01-04T05:46:17.344Z,-3.10
2023-01-04T05:49:04.530Z,-3.10
2023-01-04T05:51:51.790Z,-3.10
2023-01-04T05:54:40.536Z,-3.10
2023-01-04T05:57:28.027Z,-3.10
2023-01-04T06:00:16.199Z,-3.00
2023-01-04T06:03:03.725Z,-3.00
2023-01-04T06:05:51.192Z,-2.90
2023-01-04T06:08:38.617Z,-2.80
2023-01-04T06:11:27.841Z,-2.70
2023-01-04T06:14:15.666Z,-2.60
2023-01-04T06:17:02.940Z,-2.70
2023-01-04T06:19:50.245Z,-2.60
2023-01-04T06:22:38.369Z,-2.60
2023-01-04T06:25:25.704Z,-2.60
2023-01-04T06:28:14.018Z,-2.60
2023-01-04T06:31:05.205Z,-2.60
2023-01-04T06:33:52.561Z,-2.60
2023-01-04T06:36:40.226Z,-2.60
2023-01-04T06:39:28.449Z,-2.60
2023-01-04T06:42:29.384Z,-2.60
2023-01-04T06:45:18.147Z,-2.70
2023-01-04T06:48:09.269Z,-2.70
2023-01-04T06:50:56.962Z,-2.80
2023-01-04T06:53:44.224Z,-2.80
2023-01-04T06:56:32.304Z,-2.80
2023-01-04T06:59:19.728Z,-2.80
2023-01-04T07:02:08.334Z,-2.70
2023-01-04T07:04:55.956Z,-2.70
2023-01-04T07:07:43.119Z,-2.70
2023-01-04T07:10:31.506Z,-2.70
2023-01-04T07:13:18.877Z,-2.60
2023-01-04T07:16:06.890Z,-2.60
2023-01-04T07:18:55.470Z,-2.50
2023-01-04T07:21:42.701Z,-2.50
2023-01-04T07:24:30.645Z,-2.40
2023-01-04T07:27:17.758Z,-2.40
2023-01-04T07:30:05.655Z,-2.30
2023-01-04T07:32:53.804Z,-2.20
2023-01-04T07:35:42.510Z,-2.10
2023-01-04T07:38:29.841Z,-2.00
2023-01-04T07:41:17.063Z,-2.00
2023-01-04T07:44:04.643Z,-1.90
2023-01-04T07:46:51.929Z,-1.80
2023-01-04T07:49:39.004Z,-1.60
2023-01-04T07:52:28.016Z,-1.50
2023-01-04T07:55:15.344Z,-1.40
2023-01-04T07:58:02.489Z,-1.20
2023-01-04T08:00:49.793Z,-1.00
2023-01-04T08:03:37.238Z,-0.70
2023-01-04T08:06:24.586Z,-0.40
2023-01-04T08:09:13.471Z,-0.20
2023-01-04T08:12:00.719Z,0.00
2023-01-04T08:14:47.911Z,0.30
2023-01-04T08:17:35.504Z,0.60
2023-01-04T08:20:22.947Z,0.80
2023-01-04T08:23:10.077Z,1.10
2023-01-04T08:26:03.292Z,1.30
2023-01-04T08:28:51.407Z,1.50
2023-01-04T08:31:39.176Z,1.80
2023-01-04T08:34:26.642Z,2.00
2023-01-04T08:37:14.185Z,2.30
2023-01-04T08:40:01.176Z,2.50
2023-01-04T08:42:49.725Z,2.80
2023-01-04T08:45:37.179Z,3.00
2023-01-04T08:48:25.066Z,3.20
2023-01-04T08:51:14.318Z,3.40
2023-01-04T08:54:01.890Z,3.60
2023-01-04T08:56:49.020Z,3.80
2023-01-04T08:59:37.867Z,3.90
2023-01-04T09:02:27.559Z,4.00
2023-01-04T09:05:22.285Z,4.10
2023-01-04T09:08:10.030Z,4.20
2023-01-04T09:10:57.148Z,4.40
2023-01-04T09:13:45.486Z,4.40
2023-01-04T09:16:34.394Z,4.50
2023-01-04T09:19:22.709Z,4.60
2023-01-04T09:22:10.178Z,4.70
2023-01-04T09:24:57.502Z,4.80
2023-01-04T09:27:45.488Z,4.90
2023-01-04T09:30:32.789Z,5.00
2023-01-04T09:33:27.868Z,5.00
2023-01-04T09:36:28.901Z,5.10
2023-01-04T09:39:23.147Z,5.20
2023-01-04T09:42:18.877Z,5.30
2023-01-04T09:45:25.080Z,5.40
2023-01-04T09:48:21.619Z,5.40
2023-01-04T09:51:18.390Z,5.50
2023-01-04T09:54:13.471Z,5.60
2023-01-04T09:57:01.469Z,5.70
2023-01-04T09:59:50.998Z,5.80
2023-01-04T10:02:43.267Z,5.90
2023-01-04T10:05:33.279Z,6.10
2023-01-04T10:08:22.384Z,6.10
2023-01-04T10:11:24.028Z,6.20
2023-01-04T10:14:35.204Z,6.30
2023-01-04T10:18:29.852Z,6.40
2023-01-04T10:24:25.367Z,6.70
2023-01-04T10:27:22.995Z,6.80
2023-01-04T10:30:23.462Z,7.00
2023-01-04T10:33:13.819Z,7.20
2023-01-04T10:36:01.962Z,7.30
2023-01-04T10:38:51.690Z,7.40
2023-01-04T10:41:44.654Z,7.50
2023-01-04T10:44:48.071Z,7.60
2023-01-04T10:47:41.345Z,7.60
2023-01-04T10:50:34.821Z,7.60
2023-01-04T10:53:28.415Z,7.60
2023-01-04T10:56:25.936Z,7.60
2023-01-04T10:59:19.700Z,7.60
2023-01-04T11:02:17.062Z,7.60
2023-01-04T11:05:13.265Z,7.60
2023-01-04T11:08:04.260Z,7.60
2023-01-04T11:10:55.619Z,7.60
2023-01-04T11:13:43.322Z,7.60
2023-01-04T11:16:32.779Z,7.50
2023-01-04T11:19:20.327Z,7.50
2023-01-04T11:22:12.607Z,7.50
2023-01-04T11:28:18.807Z,7.50
2023-01-04T11:31:17.712Z,7.60
2023-01-04T11:34:07.822Z,7.60
2023-01-04T11:36:55.590Z,7.70
2023-01-04T11:39:42.895Z,7.80
2023-01-04T11:42:31.678Z,7.90
2023-01-04T11:45:25.250Z,7.90
2023-01-04T11:48:16.517Z,8.00
2023-01-04T11:51:10.147Z,8.10
2023-01-04T11:54:03.362Z,8.10
2023-01-04T11:57:20.297Z,8.10
2023-01-04T12:00:11.835Z,8.10
2023-01-04T12:03:13.007Z,8.10
2023-01-04T12:06:00.472Z,8.00
2023-01-04T12:08:49.664Z,7.90
2023-01-04T12:11:41.076Z,7.80
2023-01-04T12:14:32.425Z,7.70
2023-01-04T12:17:24.324Z,7.60
2023-01-04T12:20:19.591Z,7.50
2023-01-04T12:23:07.479Z,7.50
2023-01-04T12:25:57.016Z,7.40
2023-01-04T12:28:46.120Z,7.40
2023-01-04T12:31:34.759Z,7.40
2023-01-04T12:34:42.156Z,7.40
2023-01-04T12:37:49.425Z,7.40
2023-01-04T12:41:00.851Z,7.50
2023-01-04T12:43:50.087Z,7.60
2023-01-04T12:47:00.910Z,7.60
2023-01-04T12:50:00.038Z,7.70
2023-01-04T12:55:57.096Z,7.80
2023-01-04T12:59:27.204Z,7.80
2023-01-04T13:02:23.874Z,7.80
2023-01-04T13:05:55.303Z,7.90
2023-01-04T13:08:41.142Z,8.00
2023-01-04T13:11:54.557Z,8.00
2023-01-04T13:14:48.077Z,8.00
2023-01-04T13:17:40.901Z,8.00
2023-01-04T13:20:30.983Z,8.00
2023-01-04T13:23:18.351Z,7.90
2023-01-04T13:26:29.000Z,7.80
2023-01-04T13:29:22.198Z,7.70
2023-01-04T13:32:13.897Z,7.50
2023-01-04T13:35:09.881Z,7.40
2023-01-04T13:38:02.612Z,7.30
2023-01-04T13:40:50.173Z,7.20
2023-01-04T13:44:04.137Z,7.10
2023-01-04T13:46:53.209Z,7.10
2023-01-04T13:49:42.542Z,7.10
2023-01-04T13:55:39.454Z,7.10
2023-01-04T13:58:28.415Z,7.10
2023-01-04T14:01:21.076Z,7.10
2023-01-04T14:04:14.425Z,7.10
2023-01-04T14:07:03.623Z,7.10
2023-01-04T14:09:53.847Z,7.10
2023-01-04T14:12:46.486Z,7.10
2023-01-04T14:15:33.983Z,7.00
2023-01-04T14:18:29.395Z,7.10
2023-01-04T14:21:17.729Z,7.00
2023-01-04T14:27:42.591Z,7.00
2023-01-04T14:30:29.739Z,7.10
2023-01-04T14:33:19.482Z,7.00
2023-01-04T14:36:14.159Z,7.10
2023-01-04T14:39:18.694Z,7.00
2023-01-04T14:42:07.392Z,7.00
2023-01-04T14:44:55.430Z,7.00
2023-01-04T14:47:42.891Z,7.00
2023-01-04T14:50:30.083Z,7.00
2023-01-04T14:53:18.688Z,6.90
2023-01-04T14:56:08.879Z,6.90
2023-01-04T14:58:56.239Z,6.80
2023-01-04T15:01:43.475Z,6.80
2023-01-04T15:04:30.917Z,6.80
2023-01-04T15:07:35.413Z,6.80
2023-01-04T15:10:25.783Z,6.80
2023-01-04T15:13:14.385Z,6.80
2023-01-04T15:16:01.825Z,6.80
2023-01-04T15:18:49.725Z,6.70
2023-01-04T15:21:41.199Z,6.70
2023-01-04T15:24:29.013Z,6.70
2023-01-04T15:27:16.115Z,6.70
2023-01-04T15:30:05.259Z,6.70
2023-01-04T15:32:52.431Z,6.70
2023-01-04T15:35:39.539Z,6.70
2023-01-04T15:38:26.645Z,6.80
2023-01-04T15:41:36.490Z,6.80
2023-01-04T15:44:23.723Z,6.80
2023-01-04T15:47:13.638Z,6.80
2023-01-04T15:50:01.126Z,6.90
2023-01-04T15:52:48.608Z,6.90
2023-01-04T15:55:37.763Z,6.90
2023-01-04T15:58:25.111Z,6.90
2023-01-04T16:01:13.929Z,6.90
2023-01-04T16:04:02.829Z,7.00
2023-01-04T16:06:50.118Z,7.00
2023-01-04T16:09:37.917Z,7.00
2023-01-04T16:12:44.380Z,7.00
2023-01-04T16:15:31.731Z,7.00
2023-01-04T16:18:18.879Z,7.10
2023-01-04T16:21:08.972Z,7.20
2023-01-04T16:24:04.541Z,7.30
2023-01-04T16:26:54.288Z,7.30
2023-01-04T16:29:41.497Z,7.30
2023-01-04T16:32:29.052Z,7.30
2023-01-04T16:35:16.118Z,7.30
2023-01-04T16:38:05.255Z,7.30
2023-01-04T16:40:58.437Z,7.30
2023-01-04T16:43:48.022Z,7.30
2023-01-04T16:46:36.911Z,7.30
2023-01-04T16:49:24.987Z,7.30
2023-01-04T16:52:14.097Z,7.30
2023-01-04T16:55:02.853Z,7.20
2023-01-04T16:57:50.008Z,7.20
2023-01-04T17:00:37.110Z,7.30
2023-01-04T17:03:24.296Z,7.30
2023-01-04T17:06:13.910Z,7.40
2023-01-04T17:09:03.242Z,7.50
2023-01-04T17:15:41.243Z,7.60
2023-01-04T17:18:20.827Z,7.70
2023-01-04T17:21:32.624Z,7.70
2023-01-04T17:24:19.155Z,7.70
2023-01-04T17:27:07.823Z,7.80
2023-01-04T17:29:55.283Z,7.90
2023-01-04T17:32:42.459Z,8.00
2023-01-04T17:35:29.647Z,8.00
2023-01-04T17:38:16.940Z,8.10
2023-01-04T17:41:08.577Z,8.10
2023-01-04T17:44:00.145Z,8.10
2023-01-04T17:46:47.391Z,8.10
2023-01-04T17:49:34.782Z,8.20
2023-01-04T17:52:28.997Z,8.30
2023-01-04T17:55:18.668Z,8.30
2023-01-04T17:58:09.767Z,8.30
2023-01-04T18:01:01.241Z,8.40
2023-01-04T18:03:51.004Z,8.40
2023-01-04T18:06:38.615Z,8.40
2023-01-04T18:09:27.242Z,8.40
2023-01-04T18:12:14.699Z,8.40
2023-01-04T18:15:06.360Z,8.40
2023-01-04T18:17:55.000Z,8.50
2023-01-04T18:20:46.309Z,8.50
2023-01-04T18:23:36.252Z,8.50
2023-01-04T18:26:23.576Z,8.50
2023-01-04T18:29:10.787Z,8.50
2023-01-04T18:31:57.986Z,8.50
2023-01-04T18:34:46.576Z,8.50
2023-01-04T18:37:34.305Z,8.50
2023-01-04T18:40:21.720Z,8.50
2023-01-04T18:43:08.856Z,8.60
2023-01-04T18:45:56.098Z,8.60
2023-01-04T18:48:43.266Z,8.60
2023-01-04T18:51:32.226Z,8.60
2023-01-04T18:54:20.790Z,8.50
2023-01-04T18:57:08.245Z,8.50
2023-01-04T18:59:55.755Z,8.50
2023-01-04T19:02:43.542Z,8.50
2023-01-04T19:05:30.733Z,8.50
2023-01-04T19:08:19.531Z,8.50
2023-01-04T19:11:07.381Z,8.60
2023-01-04T19:13:55.218Z,8.50
2023-01-04T19:16:42.703Z,8.50
2023-01-04T19:19:29.786Z,8.50
2023-01-04T19:22:17.051Z,8.50
2023-01-04T19:25:06.488Z,8.40
2023-01-04T19:27:53.901Z,8.40
2023-01-04T19:30:42.587Z,8.40
2023-01-04T19:33:29.863Z,8.40
2023-01-04T19:36:19.723Z,8.40
2023-01-04T19:39:09.155Z,8.30
2023-01-04T19:41:59.619Z,8.40
2023-01-04T19:44:46.835Z,8.40
2023-01-04T19:47:34.413Z,8.40
2023-01-04T19:50:21.956Z,8.40
2023-01-04T19:53:09.563Z,8.40
2023-01-04T19:55:57.024Z,8.50
2023-01-04T19:58:45.928Z,8.50
2023-01-04T20:01:34.052Z,8.50
2023-01-04T20:04:21.519Z,8.60
2023-01-04T20:07:08.965Z,8.60
2023-01-04T20:09:56.378Z,8.60
2023-01-04T20:12:43.704Z,8.60
2023-01-04T20:15:32.270Z,8.60
2023-01-04T20:18:19.607Z,8.60
2023-01-04T20:21:12.766Z,8.70
2023-01-04T20:24:01.923Z,8.70
2023-01-04T20:26:49.509Z,8.70
2023-01-04T20:29:39.610Z,8.80
2023-01-04T20:32:28.173Z,8.80
2023-01-04T20:35:15.377Z,8.90
2023-01-04T20:38:02.550Z,9.00
2023-01-04T20:40:52.917Z,9.00
2023-01-04T20:43:40.501Z,9.20
2023-01-04T20:46:32.754Z,9.20
2023-01-04T20:49:21.795Z,9.20
2023-01-04T20:52:09.237Z,9.20
2023-01-04T20:54:56.646Z,9.20
2023-01-04T20:57:43.687Z,9.20
2023-01-04T21:00:30.786Z,9.20
2023-01-04T21:03:18.390Z,9.20
2023-01-04T21:06:09.319Z,9.20
2023-01-04T21:08:56.453Z,9.20
2023-01-04T21:11:43.489Z,9.20
2023-01-04T21:14:31.996Z,9.20
2023-01-04T21:17:19.586Z,9.30
2023-01-04T21:20:07.534Z,9.30
2023-01-04T21:22:56.204Z,9.40
2023-01-04T21:25:44.250Z,9.40
2023-01-04T21:28:31.619Z,9.40
2023-01-04T21:31:21.259Z,9.40
2023-01-04T21:34:13.035Z,9.40
2023-01-04T21:37:02.706Z,9.50
2023-01-04T21:39:51.204Z,9.50
2023-01-04T21:42:38.940Z,9.60
2023-01-04T21:45:26.932Z,9.70
2023-01-04T21:48:13.917Z,9.70
2023-01-04T21:51:01.401Z,9.70
2023-01-04T21:53:48.874Z,9.70
2023-01-04T21:56:37.372Z,9.70
2023-01-04T21:59:24.503Z,9.80
2023-01-04T22:02:15.284Z,9.70
2023-01-04T22:05:03.003Z,9.70
2023-01-04T22:07:50.588Z,9.70
2023-01-04T22:10:37.708Z,9.80
2023-01-04T22:13:26.516Z,9.80
2023-01-04T22:16:16.567Z,9.80
2023-01-04T22:19:03.830Z,9.80
2023-01-04T22:21:51.196Z,9.80
2023-01-04T22:24:38.502Z,9.90
2023-01-04T22:27:26.032Z,9.90
2023-01-04T22:30:15.381Z,10.00
2023-01-04T22:33:02.334Z,10.00
2023-01-04T22:35:49.701Z,9.90
2023-01-04T22:38:37.775Z,9.90
2023-01-04T22:41:27.594Z,9.90
2023-01-04T22:44:14.659Z,9.90
2023-01-04T22:47:03.424Z,9.90
2023-01-04T22:49:50.694Z,9.90
2023-01-04T22:52:37.912Z,9.80
2023-01-04T22:55:28.717Z,9.80
2023-01-04T22:58:24.715Z,9.80
2023-01-04T23:01:12.783Z,9.80
2023-01-04T23:04:02.726Z,9.80
2023-01-04T23:06:49.776Z,9.80
2023-01-04T23:09:37.185Z,9.80
2023-01-04T23:12:24.586Z,9.90
2023-01-04T23:15:12.728Z,9.90
2023-01-04T23:18:00.100Z,9.90
2023-01-04T23:20:55.131Z,10.00
2023-01-04T23:23:42.977Z,10.10
2023-01-04T23:26:31.260Z,10.20
2023-01-04T23:29:18.755Z,10.20
2023-01-04T23:32:06.548Z,10.40
2023-01-04T23:34:53.777Z,10.50
2023-01-04T23:37:42.437Z,10.50
2023-01-04T23:40:29.875Z,10.50
2023-01-04T23:43:17.092Z,10.50
2023-01-04T23:46:07.754Z,10.40
2023-01-04T23:48:56.174Z,10.30
2023-01-04T23:51:43.904Z,10.10
2023-01-04T23:54:33.035Z,10.00
2023-01-04T23:57:20.206Z,10.00
